sensor_id;sensor_type;location;lat;lon;timestamp;P1;durP1;ratioP1;P2;durP2;ratioP2
8927;SDS011;4499;48.304;11.902;2022-07-17T00:01:04;6.43;;;3.20;;
8927;SDS011;4499;48.304;11.902;2022-07-17T00:03:33;6.10;;;3.50;;
8927;SDS011;4499;48.304;11.902;2022-07-17T00:06:02;7.63;;;3.43;;
8927;SDS011;4499;48.304;11.902;2022-07-17T00:08:30;5.37;;;3.20;;
8927;SDS011;4499;48.304;11.902;2022-07-17T00:11:01;7.07;;;3.50;;
8927;SDS011;4499;48.304;11.902;2022-07-17T00:13:29;6.10;;;3.30;;
8927;SDS011;4499;48.304;11.902;2022-07-17T00:16:00;5.80;;;3.53;;
8927;SDS011;4499;48.304;11.902;2022-07-17T00:18:28;5.47;;;3.30;;
8927;SDS011;4499;48.304;11.902;2022-07-17T00:20:56;8.00;;;3.57;;
8927;SDS011;4499;48.304;11.902;2022-07-17T00:23:24;5.17;;;3.50;;
8927;SDS011;4499;48.304;11.902;2022-07-17T00:25:52;4.00;;;3.50;;
8927;SDS011;4499;48.304;11.902;2022-07-17T00:28:21;5.23;;;3.20;;
8927;SDS011;4499;48.304;11.902;2022-07-17T00:30:50;5.57;;;3.80;;
8927;SDS011;4499;48.304;11.902;2022-07-17T00:33:19;5.30;;;3.50;;
8927;SDS011;4499;48.304;11.902;2022-07-17T00:35:48;5.77;;;3.30;;
8927;SDS011;4499;48.304;11.902;2022-07-17T00:38:16;4.77;;;3.60;;
8927;SDS011;4499;48.304;11.902;2022-07-17T00:40:44;7.97;;;3.93;;
8927;SDS011;4499;48.304;11.902;2022-07-17T00:43:12;5.53;;;3.43;;
8927;SDS011;4499;48.304;11.902;2022-07-17T00:45:41;4.27;;;3.40;;
8927;SDS011;4499;48.304;11.902;2022-07-17T00:48:10;4.47;;;3.50;;
8927;SDS011;4499;48.304;11.902;2022-07-17T00:50:41;7.53;;;3.47;;
8927;SDS011;4499;48.304;11.902;2022-07-17T00:53:10;4.57;;;3.40;;
8927;SDS011;4499;48.304;11.902;2022-07-17T00:55:39;6.10;;;3.60;;
8927;SDS011;4499;48.304;11.902;2022-07-17T00:58:11;5.40;;;3.63;;
8927;SDS011;4499;48.304;11.902;2022-07-17T01:00:44;5.50;;;3.60;;
8927;SDS011;4499;48.304;11.902;2022-07-17T01:03:13;5.63;;;3.50;;
8927;SDS011;4499;48.304;11.902;2022-07-17T01:05:43;5.13;;;3.30;;
8927;SDS011;4499;48.304;11.902;2022-07-17T01:08:12;4.23;;;3.40;;
8927;SDS011;4499;48.304;11.902;2022-07-17T01:10:41;5.20;;;3.70;;
8927;SDS011;4499;48.304;11.902;2022-07-17T01:13:09;4.60;;;3.33;;
8927;SDS011;4499;48.304;11.902;2022-07-17T01:15:41;4.97;;;3.47;;
8927;SDS011;4499;48.304;11.902;2022-07-17T01:18:10;5.13;;;3.70;;
8927;SDS011;4499;48.304;11.902;2022-07-17T01:20:41;6.50;;;4.10;;
8927;SDS011;4499;48.304;11.902;2022-07-17T01:23:13;11.50;;;4.00;;
8927;SDS011;4499;48.304;11.902;2022-07-17T01:25:42;5.07;;;3.53;;
8927;SDS011;4499;48.304;11.902;2022-07-17T01:28:11;5.33;;;3.30;;
8927;SDS011;4499;48.304;11.902;2022-07-17T01:30:44;5.60;;;3.57;;
8927;SDS011;4499;48.304;11.902;2022-07-17T01:33:14;5.33;;;3.30;;
8927;SDS011;4499;48.304;11.902;2022-07-17T01:35:43;5.13;;;3.40;;
8927;SDS011;4499;48.304;11.902;2022-07-17T01:38:13;4.33;;;3.33;;
8927;SDS011;4499;48.304;11.902;2022-07-17T01:40:42;6.27;;;3.50;;
8927;SDS011;4499;48.304;11.902;2022-07-17T01:43:10;5.37;;;3.57;;
8927;SDS011;4499;48.304;11.902;2022-07-17T01:45:40;4.67;;;3.20;;
8927;SDS011;4499;48.304;11.902;2022-07-17T01:48:08;6.07;;;3.23;;
8927;SDS011;4499;48.304;11.902;2022-07-17T01:50:36;6.03;;;3.47;;
8927;SDS011;4499;48.304;11.902;2022-07-17T01:53:07;5.50;;;3.43;;
8927;SDS011;4499;48.304;11.902;2022-07-17T01:55:37;4.97;;;3.57;;
8927;SDS011;4499;48.304;11.902;2022-07-17T01:58:06;4.27;;;3.50;;
8927;SDS011;4499;48.304;11.902;2022-07-17T02:00:34;5.20;;;3.23;;
8927;SDS011;4499;48.304;11.902;2022-07-17T02:03:05;5.57;;;3.60;;
8927;SDS011;4499;48.304;11.902;2022-07-17T02:05:33;5.77;;;3.73;;
8927;SDS011;4499;48.304;11.902;2022-07-17T02:08:01;4.37;;;3.40;;
8927;SDS011;4499;48.304;11.902;2022-07-17T02:10:30;4.40;;;3.30;;
8927;SDS011;4499;48.304;11.902;2022-07-17T02:12:59;5.23;;;3.27;;
8927;SDS011;4499;48.304;11.902;2022-07-17T02:15:28;4.97;;;3.40;;
8927;SDS011;4499;48.304;11.902;2022-07-17T02:17:56;6.80;;;3.57;;
8927;SDS011;4499;48.304;11.902;2022-07-17T02:20:28;4.37;;;3.33;;
8927;SDS011;4499;48.304;11.902;2022-07-17T02:22:58;5.40;;;3.50;;
8927;SDS011;4499;48.304;11.902;2022-07-17T02:25:29;6.17;;;3.70;;
8927;SDS011;4499;48.304;11.902;2022-07-17T02:27:57;5.97;;;3.73;;
8927;SDS011;4499;48.304;11.902;2022-07-17T02:30:28;5.70;;;3.53;;
8927;SDS011;4499;48.304;11.902;2022-07-17T02:32:56;4.33;;;3.33;;
8927;SDS011;4499;48.304;11.902;2022-07-17T02:35:24;6.47;;;3.87;;
8927;SDS011;4499;48.304;11.902;2022-07-17T02:37:52;5.80;;;3.37;;
8927;SDS011;4499;48.304;11.902;2022-07-17T02:40:20;6.50;;;3.80;;
8927;SDS011;4499;48.304;11.902;2022-07-17T02:42:51;7.93;;;3.83;;
8927;SDS011;4499;48.304;11.902;2022-07-17T02:45:19;7.03;;;3.60;;
8927;SDS011;4499;48.304;11.902;2022-07-17T02:47:52;7.43;;;4.30;;
8927;SDS011;4499;48.304;11.902;2022-07-17T02:50:23;5.00;;;3.80;;
8927;SDS011;4499;48.304;11.902;2022-07-17T02:52:51;4.97;;;3.73;;
8927;SDS011;4499;48.304;11.902;2022-07-17T02:55:20;6.07;;;4.00;;
8927;SDS011;4499;48.304;11.902;2022-07-17T02:57:48;5.20;;;4.00;;
8927;SDS011;4499;48.304;11.902;2022-07-17T03:00:17;4.73;;;4.10;;
8927;SDS011;4499;48.304;11.902;2022-07-17T03:02:47;4.33;;;3.67;;
8927;SDS011;4499;48.304;11.902;2022-07-17T03:05:16;5.03;;;4.00;;
8927;SDS011;4499;48.304;11.902;2022-07-17T03:07:45;5.20;;;3.80;;
8927;SDS011;4499;48.304;11.902;2022-07-17T03:10:13;6.27;;;3.80;;
8927;SDS011;4499;48.304;11.902;2022-07-17T03:12:42;7.90;;;3.90;;
8927;SDS011;4499;48.304;11.902;2022-07-17T03:15:10;7.63;;;3.90;;
8927;SDS011;4499;48.304;11.902;2022-07-17T03:17:39;4.60;;;3.50;;
8927;SDS011;4499;48.304;11.902;2022-07-17T03:20:07;8.10;;;4.00;;
8927;SDS011;4499;48.304;11.902;2022-07-17T03:22:39;6.63;;;3.93;;
8927;SDS011;4499;48.304;11.902;2022-07-17T03:25:08;5.63;;;4.23;;
8927;SDS011;4499;48.304;11.902;2022-07-17T03:27:38;5.07;;;3.97;;
8927;SDS011;4499;48.304;11.902;2022-07-17T03:30:07;4.47;;;3.73;;
8927;SDS011;4499;48.304;11.902;2022-07-17T03:32:35;5.13;;;4.13;;
8927;SDS011;4499;48.304;11.902;2022-07-17T03:35:06;5.10;;;3.90;;
8927;SDS011;4499;48.304;11.902;2022-07-17T03:37:35;6.93;;;4.20;;
8927;SDS011;4499;48.304;11.902;2022-07-17T03:40:06;4.20;;;3.80;;
8927;SDS011;4499;48.304;11.902;2022-07-17T03:42:38;5.07;;;3.60;;
8927;SDS011;4499;48.304;11.902;2022-07-17T03:45:09;5.33;;;3.70;;
8927;SDS011;4499;48.304;11.902;2022-07-17T03:47:37;4.33;;;3.80;;
8927;SDS011;4499;48.304;11.902;2022-07-17T03:50:06;6.60;;;4.00;;
8927;SDS011;4499;48.304;11.902;2022-07-17T03:52:34;5.87;;;4.00;;
8927;SDS011;4499;48.304;11.902;2022-07-17T03:55:09;6.63;;;3.90;;
8927;SDS011;4499;48.304;11.902;2022-07-17T03:57:37;4.70;;;4.10;;
8927;SDS011;4499;48.304;11.902;2022-07-17T04:00:05;7.07;;;4.43;;
8927;SDS011;4499;48.304;11.902;2022-07-17T04:02:35;8.00;;;4.30;;
8927;SDS011;4499;48.304;11.902;2022-07-17T04:05:04;5.17;;;4.27;;
8927;SDS011;4499;48.304;11.902;2022-07-17T04:07:36;5.17;;;4.40;;
8927;SDS011;4499;48.304;11.902;2022-07-17T04:10:05;5.30;;;3.63;;
8927;SDS011;4499;48.304;11.902;2022-07-17T04:12:36;4.90;;;3.93;;
8927;SDS011;4499;48.304;11.902;2022-07-17T04:15:05;6.87;;;3.90;;
8927;SDS011;4499;48.304;11.902;2022-07-17T04:17:34;4.60;;;4.10;;
8927;SDS011;4499;48.304;11.902;2022-07-17T04:20:03;5.83;;;3.90;;
8927;SDS011;4499;48.304;11.902;2022-07-17T04:22:32;4.60;;;3.87;;
8927;SDS011;4499;48.304;11.902;2022-07-17T04:25:01;5.33;;;4.17;;
8927;SDS011;4499;48.304;11.902;2022-07-17T04:27:30;6.77;;;4.00;;
8927;SDS011;4499;48.304;11.902;2022-07-17T04:30:00;4.40;;;4.00;;
8927;SDS011;4499;48.304;11.902;2022-07-17T04:32:29;5.37;;;3.93;;
8927;SDS011;4499;48.304;11.902;2022-07-17T04:34:57;5.40;;;3.90;;
8927;SDS011;4499;48.304;11.902;2022-07-17T04:37:25;5.00;;;3.97;;
8927;SDS011;4499;48.304;11.902;2022-07-17T04:39:54;5.27;;;3.93;;
8927;SDS011;4499;48.304;11.902;2022-07-17T04:42:22;6.53;;;4.07;;
8927;SDS011;4499;48.304;11.902;2022-07-17T04:44:51;6.10;;;4.03;;
8927;SDS011;4499;48.304;11.902;2022-07-17T04:47:19;5.23;;;3.80;;
8927;SDS011;4499;48.304;11.902;2022-07-17T04:49:50;5.97;;;3.80;;
8927;SDS011;4499;48.304;11.902;2022-07-17T04:52:18;5.43;;;3.90;;
8927;SDS011;4499;48.304;11.902;2022-07-17T04:54:46;7.03;;;4.40;;
8927;SDS011;4499;48.304;11.902;2022-07-17T04:57:17;5.67;;;4.30;;
8927;SDS011;4499;48.304;11.902;2022-07-17T04:59:46;7.77;;;4.00;;
8927;SDS011;4499;48.304;11.902;2022-07-17T05:02:17;4.63;;;3.90;;
8927;SDS011;4499;48.304;11.902;2022-07-17T05:04:45;5.13;;;3.80;;
8927;SDS011;4499;48.304;11.902;2022-07-17T05:07:13;5.47;;;4.00;;
8927;SDS011;4499;48.304;11.902;2022-07-17T05:09:42;4.27;;;3.57;;
8927;SDS011;4499;48.304;11.902;2022-07-17T05:12:10;7.20;;;4.10;;
8927;SDS011;4499;48.304;11.902;2022-07-17T05:14:38;5.77;;;3.90;;
8927;SDS011;4499;48.304;11.902;2022-07-17T05:17:07;8.83;;;4.10;;
8927;SDS011;4499;48.304;11.902;2022-07-17T05:19:37;7.57;;;3.90;;
8927;SDS011;4499;48.304;11.902;2022-07-17T05:22:07;5.43;;;3.97;;
8927;SDS011;4499;48.304;11.902;2022-07-17T05:24:35;4.17;;;3.67;;
8927;SDS011;4499;48.304;11.902;2022-07-17T05:27:05;5.80;;;3.90;;
8927;SDS011;4499;48.304;11.902;2022-07-17T05:29:34;6.33;;;3.60;;
8927;SDS011;4499;48.304;11.902;2022-07-17T05:32:02;4.67;;;3.60;;
8927;SDS011;4499;48.304;11.902;2022-07-17T05:34:31;4.27;;;3.40;;
8927;SDS011;4499;48.304;11.902;2022-07-17T05:37:00;5.00;;;3.60;;
8927;SDS011;4499;48.304;11.902;2022-07-17T05:39:29;6.37;;;3.20;;
8927;SDS011;4499;48.304;11.902;2022-07-17T05:42:02;4.80;;;3.13;;
8927;SDS011;4499;48.304;11.902;2022-07-17T05:44:30;4.40;;;3.40;;
8927;SDS011;4499;48.304;11.902;2022-07-17T05:46:58;4.87;;;3.40;;
8927;SDS011;4499;48.304;11.902;2022-07-17T05:49:27;3.97;;;2.80;;
8927;SDS011;4499;48.304;11.902;2022-07-17T05:51:55;5.83;;;3.10;;
8927;SDS011;4499;48.304;11.902;2022-07-17T05:54:27;6.33;;;3.53;;
8927;SDS011;4499;48.304;11.902;2022-07-17T05:56:55;4.30;;;2.90;;
8927;SDS011;4499;48.304;11.902;2022-07-17T05:59:24;9.50;;;2.90;;
8927;SDS011;4499;48.304;11.902;2022-07-17T06:01:52;3.57;;;2.50;;
8927;SDS011;4499;48.304;11.902;2022-07-17T06:04:21;8.40;;;2.50;;
8927;SDS011;4499;48.304;11.902;2022-07-17T06:06:50;4.17;;;2.70;;
8927;SDS011;4499;48.304;11.902;2022-07-17T06:09:18;3.90;;;2.40;;
8927;SDS011;4499;48.304;11.902;2022-07-17T06:11:48;4.23;;;2.23;;
8927;SDS011;4499;48.304;11.902;2022-07-17T06:14:16;3.60;;;2.10;;
8927;SDS011;4499;48.304;11.902;2022-07-17T06:16:47;5.27;;;2.40;;
8927;SDS011;4499;48.304;11.902;2022-07-17T06:19:15;3.70;;;2.23;;
8927;SDS011;4499;48.304;11.902;2022-07-17T06:21:47;4.73;;;2.23;;
8927;SDS011;4499;48.304;11.902;2022-07-17T06:24:15;3.73;;;2.27;;
8927;SDS011;4499;48.304;11.902;2022-07-17T06:26:43;5.33;;;2.60;;
8927;SDS011;4499;48.304;11.902;2022-07-17T06:29:13;3.83;;;2.30;;
8927;SDS011;4499;48.304;11.902;2022-07-17T06:31:41;3.85;;;2.10;;
8927;SDS011;4499;48.304;11.902;2022-07-17T06:34:09;2.75;;;2.50;;
8927;SDS011;4499;48.304;11.902;2022-07-17T06:36:38;3.63;;;2.50;;
8927;SDS011;4499;48.304;11.902;2022-07-17T06:39:06;4.10;;;2.60;;
8927;SDS011;4499;48.304;11.902;2022-07-17T06:41:36;4.05;;;2.45;;
8927;SDS011;4499;48.304;11.902;2022-07-17T06:44:04;5.13;;;2.20;;
8927;SDS011;4499;48.304;11.902;2022-07-17T06:46:34;5.13;;;2.13;;
8927;SDS011;4499;48.304;11.902;2022-07-17T06:49:02;6.55;;;2.22;;
8927;SDS011;4499;48.304;11.902;2022-07-17T06:51:31;3.72;;;2.15;;
8927;SDS011;4499;48.304;11.902;2022-07-17T06:54:00;3.70;;;2.30;;
8927;SDS011;4499;48.304;11.902;2022-07-17T06:56:28;3.38;;;2.20;;
8927;SDS011;4499;48.304;11.902;2022-07-17T06:58:56;3.42;;;2.03;;
8927;SDS011;4499;48.304;11.902;2022-07-17T07:01:25;3.13;;;2.30;;
8927;SDS011;4499;48.304;11.902;2022-07-17T07:03:55;4.18;;;2.10;;
8927;SDS011;4499;48.304;11.902;2022-07-17T07:06:23;2.55;;;1.75;;
8927;SDS011;4499;48.304;11.902;2022-07-17T07:08:51;5.90;;;2.38;;
8927;SDS011;4499;48.304;11.902;2022-07-17T07:11:19;3.50;;;2.00;;
8927;SDS011;4499;48.304;11.902;2022-07-17T07:13:47;2.75;;;2.00;;
8927;SDS011;4499;48.304;11.902;2022-07-17T07:16:15;3.30;;;2.00;;
8927;SDS011;4499;48.304;11.902;2022-07-17T07:18:44;3.08;;;2.17;;
8927;SDS011;4499;48.304;11.902;2022-07-17T07:21:13;3.03;;;1.80;;
8927;SDS011;4499;48.304;11.902;2022-07-17T07:23:41;2.40;;;2.10;;
8927;SDS011;4499;48.304;11.902;2022-07-17T07:26:10;5.03;;;1.90;;
8927;SDS011;4499;48.304;11.902;2022-07-17T07:28:38;3.10;;;2.15;;
8927;SDS011;4499;48.304;11.902;2022-07-17T07:31:06;3.80;;;1.90;;
8927;SDS011;4499;48.304;11.902;2022-07-17T07:33:39;3.33;;;2.10;;
8927;SDS011;4499;48.304;11.902;2022-07-17T07:36:10;3.50;;;1.90;;
8927;SDS011;4499;48.304;11.902;2022-07-17T07:38:40;2.58;;;1.90;;
8927;SDS011;4499;48.304;11.902;2022-07-17T07:41:09;2.13;;;1.92;;
8927;SDS011;4499;48.304;11.902;2022-07-17T07:43:51;2.63;;;1.90;;
8927;SDS011;4499;48.304;11.902;2022-07-17T07:46:20;3.40;;;2.00;;
8927;SDS011;4499;48.304;11.902;2022-07-17T07:48:48;3.28;;;1.92;;
8927;SDS011;4499;48.304;11.902;2022-07-17T07:51:17;5.70;;;2.00;;
8927;SDS011;4499;48.304;11.902;2022-07-17T07:54:05;4.80;;;2.00;;
8927;SDS011;4499;48.304;11.902;2022-07-17T07:56:34;5.07;;;1.90;;
8927;SDS011;4499;48.304;11.902;2022-07-17T07:59:03;3.92;;;2.00;;
8927;SDS011;4499;48.304;11.902;2022-07-17T08:01:33;4.28;;;2.05;;
8927;SDS011;4499;48.304;11.902;2022-07-17T08:04:01;3.13;;;1.88;;
8927;SDS011;4499;48.304;11.902;2022-07-17T08:06:29;4.18;;;2.28;;
8927;SDS011;4499;48.304;11.902;2022-07-17T08:08:59;3.80;;;1.80;;
8927;SDS011;4499;48.304;11.902;2022-07-17T08:11:27;2.10;;;1.90;;
8927;SDS011;4499;48.304;11.902;2022-07-17T08:13:55;4.93;;;2.00;;
8927;SDS011;4499;48.304;11.902;2022-07-17T08:16:34;4.90;;;1.90;;
8927;SDS011;4499;48.304;11.902;2022-07-17T08:19:02;3.00;;;1.70;;
8927;SDS011;4499;48.304;11.902;2022-07-17T08:21:31;4.43;;;1.90;;
8927;SDS011;4499;48.304;11.902;2022-07-17T08:23:59;3.08;;;1.88;;
8927;SDS011;4499;48.304;11.902;2022-07-17T08:26:29;3.05;;;2.10;;
8927;SDS011;4499;48.304;11.902;2022-07-17T08:28:58;2.28;;;2.00;;
8927;SDS011;4499;48.304;11.902;2022-07-17T08:31:26;2.63;;;1.73;;
8927;SDS011;4499;48.304;11.902;2022-07-17T08:33:57;4.97;;;2.20;;
8927;SDS011;4499;48.304;11.902;2022-07-17T08:36:27;3.38;;;1.77;;
8927;SDS011;4499;48.304;11.902;2022-07-17T08:38:57;4.47;;;2.03;;
8927;SDS011;4499;48.304;11.902;2022-07-17T08:41:25;4.63;;;1.80;;
8927;SDS011;4499;48.304;11.902;2022-07-17T08:43:55;5.43;;;2.00;;
8927;SDS011;4499;48.304;11.902;2022-07-17T08:46:23;4.72;;;1.90;;
8927;SDS011;4499;48.304;11.902;2022-07-17T08:48:56;2.50;;;1.80;;
8927;SDS011;4499;48.304;11.902;2022-07-17T08:51:26;2.60;;;1.70;;
8927;SDS011;4499;48.304;11.902;2022-07-17T08:53:56;4.93;;;2.00;;
8927;SDS011;4499;48.304;11.902;2022-07-17T08:56:25;4.85;;;2.03;;
8927;SDS011;4499;48.304;11.902;2022-07-17T08:58:55;5.50;;;2.00;;
8927;SDS011;4499;48.304;11.902;2022-07-17T09:01:24;3.25;;;1.88;;
8927;SDS011;4499;48.304;11.902;2022-07-17T09:03:54;3.50;;;1.80;;
8927;SDS011;4499;48.304;11.902;2022-07-17T09:06:25;3.90;;;2.05;;
8927;SDS011;4499;48.304;11.902;2022-07-17T09:09:01;2.70;;;1.80;;
8927;SDS011;4499;48.304;11.902;2022-07-17T09:11:43;3.42;;;1.70;;
8927;SDS011;4499;48.304;11.902;2022-07-17T09:14:13;6.38;;;1.80;;
8927;SDS011;4499;48.304;11.902;2022-07-17T09:16:51;3.03;;;1.80;;
8927;SDS011;4499;48.304;11.902;2022-07-17T09:19:28;5.07;;;1.60;;
8927;SDS011;4499;48.304;11.902;2022-07-17T09:22:06;6.13;;;1.70;;
8927;SDS011;4499;48.304;11.902;2022-07-17T09:24:38;3.33;;;1.60;;
8927;SDS011;4499;48.304;11.902;2022-07-17T09:27:15;2.15;;;1.70;;
8927;SDS011;4499;48.304;11.902;2022-07-17T09:30:01;3.05;;;1.80;;
8927;SDS011;4499;48.304;11.902;2022-07-17T09:32:36;5.03;;;2.00;;
8927;SDS011;4499;48.304;11.902;2022-07-17T09:35:07;3.33;;;1.92;;
8927;SDS011;4499;48.304;11.902;2022-07-17T09:37:38;3.22;;;1.60;;
8927;SDS011;4499;48.304;11.902;2022-07-17T09:40:08;3.63;;;1.70;;
8927;SDS011;4499;48.304;11.902;2022-07-17T09:43:02;3.35;;;2.05;;
8927;SDS011;4499;48.304;11.902;2022-07-17T09:45:30;2.67;;;1.90;;
8927;SDS011;4499;48.304;11.902;2022-07-17T09:48:01;4.07;;;1.90;;
8927;SDS011;4499;48.304;11.902;2022-07-17T09:50:30;3.92;;;1.85;;
8927;SDS011;4499;48.304;11.902;2022-07-17T09:53:02;2.55;;;1.77;;
8927;SDS011;4499;48.304;11.902;2022-07-17T09:55:32;3.92;;;1.92;;
8927;SDS011;4499;48.304;11.902;2022-07-17T09:58:13;5.65;;;2.28;;
8927;SDS011;4499;48.304;11.902;2022-07-17T10:00:44;3.22;;;1.83;;
8927;SDS011;4499;48.304;11.902;2022-07-17T10:03:16;2.17;;;1.77;;
8927;SDS011;4499;48.304;11.902;2022-07-17T10:05:47;3.88;;;1.90;;
8927;SDS011;4499;48.304;11.902;2022-07-17T10:08:16;3.28;;;1.80;;
8927;SDS011;4499;48.304;11.902;2022-07-17T10:10:45;3.30;;;1.75;;
8927;SDS011;4499;48.304;11.902;2022-07-17T10:13:14;2.25;;;1.73;;
8927;SDS011;4499;48.304;11.902;2022-07-17T10:15:43;5.65;;;2.10;;
8927;SDS011;4499;48.304;11.902;2022-07-17T10:18:11;2.95;;;1.95;;
8927;SDS011;4499;48.304;11.902;2022-07-17T10:20:40;3.30;;;1.80;;
8927;SDS011;4499;48.304;11.902;2022-07-17T10:23:12;2.85;;;1.65;;
8927;SDS011;4499;48.304;11.902;2022-07-17T10:25:42;4.90;;;1.80;;
8927;SDS011;4499;48.304;11.902;2022-07-17T10:28:10;3.72;;;1.88;;
8927;SDS011;4499;48.304;11.902;2022-07-17T10:30:41;2.53;;;1.55;;
8927;SDS011;4499;48.304;11.902;2022-07-17T10:33:15;1.60;;;1.50;;
8927;SDS011;4499;48.304;11.902;2022-07-17T10:35:46;2.13;;;1.60;;
8927;SDS011;4499;48.304;11.902;2022-07-17T10:38:15;2.33;;;1.67;;
8927;SDS011;4499;48.304;11.902;2022-07-17T10:40:45;3.38;;;1.90;;
8927;SDS011;4499;48.304;11.902;2022-07-17T10:43:13;4.15;;;1.75;;
8927;SDS011;4499;48.304;11.902;2022-07-17T10:45:42;3.85;;;1.70;;
8927;SDS011;4499;48.304;11.902;2022-07-17T10:48:13;3.10;;;1.85;;
8927;SDS011;4499;48.304;11.902;2022-07-17T10:50:45;3.47;;;1.80;;
8927;SDS011;4499;48.304;11.902;2022-07-17T10:53:15;5.93;;;1.80;;
8927;SDS011;4499;48.304;11.902;2022-07-17T10:55:52;3.20;;;1.70;;
8927;SDS011;4499;48.304;11.902;2022-07-17T10:58:23;1.95;;;1.65;;
8927;SDS011;4499;48.304;11.902;2022-07-17T11:00:56;3.35;;;1.63;;
8927;SDS011;4499;48.304;11.902;2022-07-17T11:03:25;3.40;;;1.60;;
8927;SDS011;4499;48.304;11.902;2022-07-17T11:06:11;2.75;;;1.90;;
8927;SDS011;4499;48.304;11.902;2022-07-17T11:08:43;6.72;;;2.00;;
8927;SDS011;4499;48.304;11.902;2022-07-17T11:11:14;2.72;;;1.70;;
8927;SDS011;4499;48.304;11.902;2022-07-17T11:13:51;2.35;;;1.70;;
8927;SDS011;4499;48.304;11.902;2022-07-17T11:16:25;3.90;;;1.80;;
8927;SDS011;4499;48.304;11.902;2022-07-17T11:18:56;2.20;;;1.60;;
8927;SDS011;4499;48.304;11.902;2022-07-17T11:21:27;6.45;;;1.95;;
8927;SDS011;4499;48.304;11.902;2022-07-17T11:23:57;3.38;;;1.95;;
8927;SDS011;4499;48.304;11.902;2022-07-17T11:26:27;3.50;;;1.70;;
8927;SDS011;4499;48.304;11.902;2022-07-17T11:28:56;4.72;;;1.88;;
8927;SDS011;4499;48.304;11.902;2022-07-17T11:31:28;3.08;;;1.83;;
8927;SDS011;4499;48.304;11.902;2022-07-17T11:33:57;2.28;;;1.73;;
8927;SDS011;4499;48.304;11.902;2022-07-17T11:36:28;3.33;;;1.80;;
8927;SDS011;4499;48.304;11.902;2022-07-17T11:39:00;3.20;;;1.60;;
8927;SDS011;4499;48.304;11.902;2022-07-17T11:41:35;4.43;;;1.70;;
8927;SDS011;4499;48.304;11.902;2022-07-17T11:44:04;3.00;;;1.83;;
8927;SDS011;4499;48.304;11.902;2022-07-17T11:46:36;2.55;;;1.50;;
8927;SDS011;4499;48.304;11.902;2022-07-17T11:49:09;4.65;;;1.70;;
8927;SDS011;4499;48.304;11.902;2022-07-17T11:51:39;3.88;;;1.90;;
8927;SDS011;4499;48.304;11.902;2022-07-17T11:54:09;2.22;;;1.63;;
8927;SDS011;4499;48.304;11.902;2022-07-17T11:56:40;3.65;;;1.70;;
8927;SDS011;4499;48.304;11.902;2022-07-17T11:59:10;3.40;;;1.83;;
8927;SDS011;4499;48.304;11.902;2022-07-17T12:01:39;4.25;;;1.80;;
8927;SDS011;4499;48.304;11.902;2022-07-17T12:04:09;3.23;;;1.50;;
8927;SDS011;4499;48.304;11.902;2022-07-17T12:06:42;3.57;;;1.63;;
8927;SDS011;4499;48.304;11.902;2022-07-17T12:09:12;1.90;;;1.60;;
8927;SDS011;4499;48.304;11.902;2022-07-17T12:11:49;2.47;;;1.87;;
8927;SDS011;4499;48.304;11.902;2022-07-17T12:14:17;3.47;;;1.80;;
8927;SDS011;4499;48.304;11.902;2022-07-17T12:16:46;3.73;;;1.80;;
8927;SDS011;4499;48.304;11.902;2022-07-17T12:19:15;1.83;;;1.57;;
8927;SDS011;4499;48.304;11.902;2022-07-17T12:21:53;1.70;;;1.50;;
8927;SDS011;4499;48.304;11.902;2022-07-17T12:24:23;3.00;;;1.60;;
8927;SDS011;4499;48.304;11.902;2022-07-17T12:26:56;2.33;;;1.90;;
8927;SDS011;4499;48.304;11.902;2022-07-17T12:29:31;2.53;;;1.60;;
8927;SDS011;4499;48.304;11.902;2022-07-17T12:32:00;3.07;;;1.60;;
8927;SDS011;4499;48.304;11.902;2022-07-17T12:34:32;2.97;;;1.50;;
8927;SDS011;4499;48.304;11.902;2022-07-17T12:37:01;3.60;;;1.70;;
8927;SDS011;4499;48.304;11.902;2022-07-17T12:39:31;3.07;;;1.63;;
8927;SDS011;4499;48.304;11.902;2022-07-17T12:42:01;2.70;;;1.40;;
8927;SDS011;4499;48.304;11.902;2022-07-17T12:44:30;2.03;;;1.50;;
8927;SDS011;4499;48.304;11.902;2022-07-17T12:46:59;2.10;;;1.70;;
8927;SDS011;4499;48.304;11.902;2022-07-17T12:49:28;1.73;;;1.40;;
8927;SDS011;4499;48.304;11.902;2022-07-17T12:51:57;3.67;;;1.80;;
8927;SDS011;4499;48.304;11.902;2022-07-17T12:54:25;2.70;;;1.93;;
8927;SDS011;4499;48.304;11.902;2022-07-17T12:56:53;3.47;;;1.80;;
8927;SDS011;4499;48.304;11.902;2022-07-17T12:59:23;2.77;;;1.50;;
8927;SDS011;4499;48.304;11.902;2022-07-17T13:01:51;1.90;;;1.57;;
8927;SDS011;4499;48.304;11.902;2022-07-17T13:04:25;4.03;;;1.50;;
8927;SDS011;4499;48.304;11.902;2022-07-17T13:06:53;1.80;;;1.43;;
8927;SDS011;4499;48.304;11.902;2022-07-17T13:09:21;6.00;;;1.67;;
8927;SDS011;4499;48.304;11.902;2022-07-17T13:11:51;2.10;;;1.50;;
8927;SDS011;4499;48.304;11.902;2022-07-17T13:14:19;2.77;;;1.50;;
8927;SDS011;4499;48.304;11.902;2022-07-17T13:16:49;2.87;;;1.60;;
8927;SDS011;4499;48.304;11.902;2022-07-17T13:19:18;3.30;;;1.40;;
8927;SDS011;4499;48.304;11.902;2022-07-17T13:21:48;3.47;;;1.53;;
8927;SDS011;4499;48.304;11.902;2022-07-17T13:24:18;4.30;;;1.70;;
8927;SDS011;4499;48.304;11.902;2022-07-17T13:26:46;1.87;;;1.50;;
8927;SDS011;4499;48.304;11.902;2022-07-17T13:29:15;3.30;;;1.63;;
8927;SDS011;4499;48.304;11.902;2022-07-17T13:31:45;2.13;;;1.50;;
8927;SDS011;4499;48.304;11.902;2022-07-17T13:34:22;3.70;;;1.50;;
8927;SDS011;4499;48.304;11.902;2022-07-17T13:36:52;2.13;;;1.70;;
8927;SDS011;4499;48.304;11.902;2022-07-17T13:39:20;1.50;;;1.40;;
8927;SDS011;4499;48.304;11.902;2022-07-17T13:41:48;2.60;;;1.70;;
8927;SDS011;4499;48.304;11.902;2022-07-17T13:44:18;2.03;;;1.63;;
8927;SDS011;4499;48.304;11.902;2022-07-17T13:46:46;2.90;;;1.80;;
8927;SDS011;4499;48.304;11.902;2022-07-17T13:49:15;2.03;;;1.73;;
8927;SDS011;4499;48.304;11.902;2022-07-17T13:51:45;1.70;;;1.40;;
8927;SDS011;4499;48.304;11.902;2022-07-17T13:54:13;2.90;;;1.40;;
8927;SDS011;4499;48.304;11.902;2022-07-17T13:56:42;1.57;;;1.47;;
8927;SDS011;4499;48.304;11.902;2022-07-17T13:59:10;2.43;;;1.53;;
8927;SDS011;4499;48.304;11.902;2022-07-17T14:01:38;2.67;;;1.60;;
8927;SDS011;4499;48.304;11.902;2022-07-17T14:04:07;3.03;;;1.53;;
8927;SDS011;4499;48.304;11.902;2022-07-17T14:06:37;2.60;;;1.50;;
8927;SDS011;4499;48.304;11.902;2022-07-17T14:09:06;2.33;;;1.57;;
8927;SDS011;4499;48.304;11.902;2022-07-17T14:11:34;1.60;;;1.50;;
8927;SDS011;4499;48.304;11.902;2022-07-17T14:14:03;1.73;;;1.50;;
8927;SDS011;4499;48.304;11.902;2022-07-17T14:16:32;2.87;;;1.80;;
8927;SDS011;4499;48.304;11.902;2022-07-17T14:19:00;2.03;;;1.60;;
8927;SDS011;4499;48.304;11.902;2022-07-17T14:21:32;1.67;;;1.57;;
8927;SDS011;4499;48.304;11.902;2022-07-17T14:24:01;3.07;;;1.50;;
8927;SDS011;4499;48.304;11.902;2022-07-17T14:26:32;1.73;;;1.53;;
8927;SDS011;4499;48.304;11.902;2022-07-17T14:29:01;2.77;;;1.60;;
8927;SDS011;4499;48.304;11.902;2022-07-17T14:31:30;2.27;;;1.60;;
8927;SDS011;4499;48.304;11.902;2022-07-17T14:34:08;3.20;;;1.60;;
8927;SDS011;4499;48.304;11.902;2022-07-17T14:36:39;2.90;;;1.50;;
8927;SDS011;4499;48.304;11.902;2022-07-17T14:39:08;1.73;;;1.63;;
8927;SDS011;4499;48.304;11.902;2022-07-17T14:41:37;1.60;;;1.30;;
8927;SDS011;4499;48.304;11.902;2022-07-17T14:44:06;3.73;;;1.83;;
8927;SDS011;4499;48.304;11.902;2022-07-17T14:46:35;1.87;;;1.57;;
8927;SDS011;4499;48.304;11.902;2022-07-17T14:49:03;3.20;;;1.40;;
8927;SDS011;4499;48.304;11.902;2022-07-17T14:51:32;2.83;;;1.67;;
8927;SDS011;4499;48.304;11.902;2022-07-17T14:54:01;1.80;;;1.67;;
8927;SDS011;4499;48.304;11.902;2022-07-17T14:56:29;1.87;;;1.67;;
8927;SDS011;4499;48.304;11.902;2022-07-17T14:58:58;2.50;;;1.53;;
8927;SDS011;4499;48.304;11.902;2022-07-17T15:01:26;3.93;;;1.60;;
8927;SDS011;4499;48.304;11.902;2022-07-17T15:03:55;2.40;;;1.50;;
8927;SDS011;4499;48.304;11.902;2022-07-17T15:06:23;3.60;;;1.67;;
8927;SDS011;4499;48.304;11.902;2022-07-17T15:08:51;1.80;;;1.50;;
8927;SDS011;4499;48.304;11.902;2022-07-17T15:11:20;2.33;;;1.90;;
8927;SDS011;4499;48.304;11.902;2022-07-17T15:13:48;2.60;;;1.67;;
8927;SDS011;4499;48.304;11.902;2022-07-17T15:16:18;4.50;;;1.50;;